createdAt,value
2023-05-13T00:00:29.794Z,71.76
2023-05-13T00:02:56.488Z,72.34
2023-05-13T00:05:22.953Z,72.96
2023-05-13T00:07:49.362Z,74.15
2023-05-13T00:10:16.550Z,74.63
2023-05-13T00:12:43.757Z,75.43
2023-05-13T00:15:10.656Z,75.90
2023-05-13T00:17:37.257Z,76.02
2023-05-13T00:20:04.346Z,76.00
2023-05-13T00:22:30.711Z,75.87
2023-05-13T00:24:57.077Z,75.31
2023-05-13T00:27:23.537Z,75.14
2023-05-13T00:29:49.972Z,74.55
2023-05-13T00:32:16.424Z,74.82
2023-05-13T00:34:42.854Z,74.80
2023-05-13T00:37:10.458Z,73.41
2023-05-13T00:39:36.850Z,72.64
2023-05-13T00:42:06.342Z,72.22
2023-05-13T00:44:32.799Z,72.01
2023-05-13T00:46:59.499Z,72.49
2023-05-13T00:49:25.945Z,72.81
2023-05-13T00:51:55.101Z,73.37
2023-05-13T00:54:21.600Z,75.29
2023-05-13T00:56:47.978Z,75.79
2023-05-13T00:59:14.398Z,75.78
2023-05-13T01:02:19.370Z,75.82
2023-05-13T01:05:13.649Z,76.46
2023-05-13T01:07:54.497Z,77.02
2023-05-13T01:10:31.872Z,76.59
2023-05-13T01:13:04.087Z,76.68
2023-05-13T01:15:31.753Z,77.03
2023-05-13T01:18:06.291Z,76.94
2023-05-13T01:20:34.451Z,77.14
2023-05-13T01:23:00.966Z,77.51
2023-05-13T01:25:27.438Z,78.12
2023-05-13T01:27:54.214Z,77.62
2023-05-13T01:30:21.713Z,77.57
2023-05-13T01:32:49.213Z,77.74
2023-05-13T01:35:17.088Z,78.08
2023-05-13T01:37:43.735Z,78.08
2023-05-13T01:40:24.082Z,78.21
2023-05-13T01:42:51.262Z,77.86
2023-05-13T01:45:18.293Z,77.97
2023-05-13T01:47:44.769Z,78.08
2023-05-13T01:50:11.272Z,78.07
2023-05-13T01:52:37.626Z,78.17
2023-05-13T01:55:04.395Z,78.63
2023-05-13T01:57:30.808Z,79.24
2023-05-13T01:59:57.285Z,80.69
2023-05-13T02:02:23.717Z,81.42
2023-05-13T02:04:50.582Z,81.02
2023-05-13T02:07:17.033Z,81.76
2023-05-13T02:09:43.425Z,81.26
2023-05-13T02:12:09.882Z,81.45
2023-05-13T02:14:37.624Z,81.05
2023-05-13T02:17:04.595Z,81.41
2023-05-13T02:19:30.981Z,81.83
2023-05-13T02:21:57.495Z,81.77
2023-05-13T02:24:23.874Z,81.63
2023-05-13T02:26:50.305Z,81.78
2023-05-13T02:29:16.689Z,82.10
2023-05-13T02:31:43.251Z,82.36
2023-05-13T02:34:09.796Z,82.34
2023-05-13T02:36:36.528Z,82.82
2023-05-13T02:39:03.189Z,83.20
2023-05-13T02:41:29.655Z,83.16
2023-05-13T02:43:56.021Z,82.83
2023-05-13T02:46:22.454Z,83.72
2023-05-13T02:48:49.218Z,83.92
2023-05-13T02:51:15.637Z,84.04
2023-05-13T02:53:42.156Z,84.51
2023-05-13T02:56:08.538Z,84.88
2023-05-13T02:58:34.931Z,85.07
2023-05-13T03:01:01.344Z,85.33
2023-05-13T03:03:29.193Z,85.64
2023-05-13T03:05:55.861Z,85.89
2023-05-13T03:08:22.262Z,86.48
2023-05-13T03:10:48.883Z,86.57
2023-05-13T03:13:15.492Z,86.99
2023-05-13T03:15:44.087Z,87.36
2023-05-13T03:18:10.882Z,87.57
2023-05-13T03:20:37.307Z,87.71
2023-05-13T03:23:03.842Z,88.21
2023-05-13T03:25:30.249Z,88.64
2023-05-13T03:27:56.656Z,88.92
2023-05-13T03:30:23.351Z,89.26
2023-05-13T03:32:50.086Z,89.62
2023-05-13T03:35:16.511Z,89.79
2023-05-13T03:37:42.877Z,89.71
2023-05-13T03:40:09.682Z,90.13
2023-05-13T03:42:36.144Z,90.45
2023-05-13T03:45:02.680Z,90.88
2023-05-13T03:47:29.109Z,90.95
2023-05-13T03:49:55.491Z,91.13
2023-05-13T03:52:21.892Z,91.65
2023-05-13T03:54:48.239Z,91.61
2023-05-13T03:57:14.756Z,91.78
2023-05-13T03:59:41.173Z,91.91
2023-05-13T04:02:07.559Z,92.03
2023-05-13T04:04:34.171Z,92.45
2023-05-13T04:07:00.659Z,92.66
2023-05-13T04:09:27.053Z,92.60
2023-05-13T04:11:53.416Z,92.58
2023-05-13T04:14:19.826Z,92.70
2023-05-13T04:16:46.314Z,92.94
2023-05-13T04:19:12.803Z,91.77
2023-05-13T04:21:39.267Z,89.89
2023-05-13T04:24:06.624Z,88.02
2023-05-13T04:26:33.078Z,86.89
2023-05-13T04:28:59.480Z,85.38
2023-05-13T04:31:26.010Z,83.30
2023-05-13T04:33:52.463Z,81.22
2023-05-13T04:36:18.931Z,78.83
2023-05-13T04:38:45.344Z,76.50
2023-05-13T04:41:11.748Z,76.25
2023-05-13T04:43:38.118Z,75.02
2023-05-13T04:46:04.696Z,73.63
2023-05-13T04:48:31.200Z,71.85
2023-05-13T04:50:58.457Z,70.34
2023-05-13T04:53:25.388Z,68.74
2023-05-13T04:55:57.070Z,68.53
2023-05-13T04:58:24.833Z,67.51
2023-05-13T05:00:51.307Z,65.72
2023-05-13T05:03:17.720Z,66.96
2023-05-13T05:05:44.146Z,66.95
2023-05-13T05:08:10.745Z,64.35
2023-05-13T05:10:37.194Z,65.48
2023-05-13T05:13:03.749Z,65.58
2023-05-13T05:15:30.346Z,64.80
2023-05-13T05:17:56.994Z,62.23
2023-05-13T05:20:24.408Z,61.42
2023-05-13T05:22:50.916Z,61.47
2023-05-13T05:25:17.352Z,60.12
2023-05-13T05:27:43.769Z,60.31
2023-05-13T05:30:10.835Z,60.78
2023-05-13T05:32:37.425Z,60.64
2023-05-13T05:35:04.283Z,59.92
2023-05-13T05:37:30.750Z,59.95
2023-05-13T05:39:57.149Z,58.13
2023-05-13T05:42:23.613Z,57.71
2023-05-13T05:44:50.224Z,58.13
2023-05-13T05:47:16.611Z,57.09
2023-05-13T05:49:43.261Z,56.01
2023-05-13T05:52:11.160Z,55.60
2023-05-13T05:54:37.645Z,56.91
2023-05-13T05:57:04.598Z,56.47
2023-05-13T05:59:31.100Z,58.46
2023-05-13T06:01:57.528Z,58.37
2023-05-13T06:04:24.773Z,60.10
2023-05-13T06:06:51.337Z,58.21
2023-05-13T06:09:17.823Z,57.24
2023-05-13T06:11:44.198Z,56.22
2023-05-13T06:14:10.589Z,57.42
2023-05-13T06:16:37.000Z,60.08
2023-05-13T06:19:03.409Z,59.51
2023-05-13T06:21:31.615Z,58.64
2023-05-13T06:23:58.069Z,58.20
2023-05-13T06:26:24.566Z,55.85
2023-05-13T06:28:51.104Z,58.64
2023-05-13T06:31:17.774Z,59.19
2023-05-13T06:33:44.194Z,58.26
2023-05-13T06:36:10.618Z,58.11
2023-05-13T06:38:37.064Z,57.85
2023-05-13T06:41:03.657Z,57.98
2023-05-13T06:43:30.039Z,59.45
2023-05-13T06:45:56.665Z,59.79
2023-05-13T06:48:23.079Z,59.80
2023-05-13T06:50:49.805Z,56.94
2023-05-13T06:53:16.271Z,57.85
2023-05-13T06:55:42.760Z,57.92
2023-05-13T06:58:09.887Z,57.15
2023-05-13T07:00:37.687Z,59.68
2023-05-13T07:03:05.775Z,57.61
2023-05-13T07:05:33.078Z,57.54
2023-05-13T07:07:59.993Z,59.58
2023-05-13T07:10:27.060Z,57.21
2023-05-13T07:12:53.511Z,54.83
2023-05-13T07:15:20.165Z,53.99
2023-05-13T07:17:46.876Z,54.25
2023-05-13T07:20:13.467Z,55.02
2023-05-13T07:22:39.869Z,56.66
2023-05-13T07:25:06.750Z,55.65
2023-05-13T07:27:33.133Z,53.16
2023-05-13T07:29:59.561Z,53.17
2023-05-13T07:32:25.970Z,51.66
2023-05-13T07:34:52.396Z,53.11
2023-05-13T07:37:18.782Z,54.34
2023-05-13T07:39:45.206Z,53.72
2023-05-13T07:42:11.626Z,53.44
2023-05-13T07:44:38.085Z,52.44
2023-05-13T07:47:04.595Z,52.20
2023-05-13T07:49:31.047Z,56.82
2023-05-13T07:51:57.656Z,55.92
2023-05-13T07:54:24.092Z,56.61
2023-05-13T07:56:50.626Z,57.69
2023-05-13T07:59:18.232Z,60.92
2023-05-13T08:01:44.761Z,60.03
2023-05-13T08:04:11.444Z,59.10
2023-05-13T08:06:37.996Z,62.05
2023-05-13T08:09:04.720Z,61.05
2023-05-13T08:11:31.150Z,62.58
2023-05-13T08:13:57.706Z,61.26
2023-05-13T08:16:24.191Z,62.44
2023-05-13T08:18:50.656Z,61.92
2023-05-13T08:21:17.300Z,61.89
2023-05-13T08:23:45.891Z,62.45
2023-05-13T08:26:13.368Z,61.31
2023-05-13T08:28:39.976Z,62.76
2023-05-13T08:31:06.480Z,64.07
2023-05-13T08:33:33.143Z,64.45
2023-05-13T08:36:00.584Z,61.70
2023-05-13T08:38:27.289Z,61.86
2023-05-13T08:40:53.928Z,60.43
2023-05-13T08:43:23.619Z,59.49
2023-05-13T08:45:53.333Z,58.79
2023-05-13T08:48:20.367Z,60.26
2023-05-13T08:50:47.355Z,64.99
2023-05-13T08:53:16.440Z,63.27
2023-05-13T08:55:42.824Z,63.04
2023-05-13T08:58:09.678Z,62.31
2023-05-13T09:00:36.121Z,62.56
2023-05-13T09:03:02.956Z,61.64
2023-05-13T09:05:29.615Z,59.24
2023-05-13T09:07:57.227Z,62.24
2023-05-13T09:10:23.960Z,59.89
2023-05-13T09:12:55.092Z,59.48
2023-05-13T09:15:24.026Z,60.82
2023-05-13T09:18:03.341Z,60.43
2023-05-13T09:20:30.704Z,60.83
2023-05-13T09:22:59.921Z,60.33
2023-05-13T09:25:27.451Z,60.56
2023-05-13T09:27:57.728Z,59.82
2023-05-13T09:30:26.061Z,59.30
2023-05-13T09:33:10.094Z,58.90
2023-05-13T09:35:41.752Z,57.60
2023-05-13T09:38:29.276Z,60.57
2023-05-13T09:40:58.496Z,57.42
2023-05-13T09:43:28.245Z,59.48
2023-05-13T09:45:56.698Z,60.71
2023-05-13T09:48:25.811Z,60.00
2023-05-13T09:50:53.180Z,60.59
2023-05-13T09:53:21.213Z,59.64
2023-05-13T09:55:53.182Z,60.30
2023-05-13T09:58:20.422Z,60.38
2023-05-13T10:00:47.907Z,60.76
2023-05-13T10:03:15.191Z,62.27
2023-05-13T10:05:42.388Z,59.95
2023-05-13T10:08:10.526Z,63.96
2023-05-13T10:10:37.825Z,59.63
2023-05-13T10:13:25.330Z,60.13
2023-05-13T10:15:53.217Z,59.21
2023-05-13T10:18:21.036Z,62.73
2023-05-13T10:20:52.941Z,59.23
2023-05-13T10:23:20.314Z,58.46
2023-05-13T10:25:56.344Z,60.48
2023-05-13T10:28:24.809Z,59.41
2023-05-13T10:30:51.645Z,57.03
2023-05-13T10:33:18.485Z,58.61
2023-05-13T10:36:01.741Z,58.46
2023-05-13T10:38:43.447Z,58.22
2023-05-13T10:41:47.520Z,58.98
2023-05-13T10:44:14.158Z,57.02
2023-05-13T10:46:43.256Z,59.55
2023-05-13T10:49:16.111Z,59.13
2023-05-13T10:51:49.883Z,57.36
2023-05-13T10:54:20.743Z,58.84
2023-05-13T10:56:57.123Z,55.63
2023-05-13T10:59:23.556Z,56.93
2023-05-13T11:01:50.073Z,55.71
2023-05-13T11:04:18.183Z,57.26
2023-05-13T11:06:46.467Z,54.80
2023-05-13T11:09:31.617Z,55.55
2023-05-13T11:11:59.988Z,54.54
2023-05-13T11:14:28.022Z,58.79
2023-05-13T11:17:08.520Z,57.30
2023-05-13T11:19:37.771Z,57.21
2023-05-13T11:22:24.722Z,53.82
2023-05-13T11:25:09.230Z,50.70
2023-05-13T11:27:42.623Z,52.33
2023-05-13T11:30:22.978Z,50.71
2023-05-13T11:32:57.096Z,50.83
2023-05-13T11:35:24.723Z,53.52
2023-05-13T11:37:51.617Z,50.41
2023-05-13T11:40:36.330Z,50.50
2023-05-13T11:43:05.107Z,53.14
2023-05-13T11:45:32.095Z,52.51
2023-05-13T11:47:59.069Z,54.64
2023-05-13T11:50:30.644Z,48.19
2023-05-13T11:53:01.424Z,48.45
2023-05-13T11:55:29.915Z,48.90
2023-05-13T11:57:56.950Z,48.65
2023-05-13T12:00:31.004Z,47.39
2023-05-13T12:02:58.858Z,47.78
2023-05-13T12:05:26.693Z,49.01
2023-05-13T12:07:57.987Z,44.85
2023-05-13T12:10:25.045Z,46.76
2023-05-13T12:12:51.868Z,45.89
2023-05-13T12:15:20.537Z,48.03
2023-05-13T12:17:48.309Z,46.48
2023-05-13T12:20:18.464Z,41.92
2023-05-13T12:22:44.872Z,47.52
2023-05-13T12:25:36.344Z,42.67
2023-05-13T12:28:23.143Z,47.44
2023-05-13T12:30:57.127Z,45.45
2023-05-13T12:33:29.205Z,42.33
2023-05-13T12:36:18.157Z,38.69
2023-05-13T12:39:06.021Z,40.01
2023-05-13T12:41:34.947Z,43.07
2023-05-13T12:44:04.602Z,41.73
2023-05-13T12:46:31.493Z,41.11
2023-05-13T12:49:02.854Z,38.06
2023-05-13T12:51:30.054Z,37.16
2023-05-13T12:53:57.796Z,40.70
2023-05-13T12:56:25.562Z,41.48
2023-05-13T12:58:53.856Z,41.18
2023-05-13T13:01:20.917Z,39.58
2023-05-13T13:03:47.721Z,40.49
2023-05-13T13:06:15.019Z,43.88
2023-05-13T13:08:41.410Z,41.55
2023-05-13T13:11:08.087Z,43.08
2023-05-13T13:13:36.676Z,41.85
2023-05-13T13:16:05.073Z,39.60
2023-05-13T13:18:31.532Z,42.30
2023-05-13T13:20:57.903Z,43.64
2023-05-13T13:23:24.679Z,44.94
2023-05-13T13:25:51.078Z,43.77
2023-05-13T13:28:17.544Z,39.04
2023-05-13T13:30:46.803Z,41.60
2023-05-13T13:33:17.037Z,40.57
2023-05-13T13:35:44.767Z,37.36
2023-05-13T13:38:11.375Z,37.88
2023-05-13T13:40:37.893Z,43.55
2023-05-13T13:43:08.046Z,42.82
2023-05-13T13:45:35.515Z,39.51
2023-05-13T13:48:02.325Z,40.68
2023-05-13T13:50:29.005Z,37.63
2023-05-13T13:52:55.876Z,41.01
2023-05-13T13:55:23.327Z,40.69
2023-05-13T13:57:49.906Z,39.47
2023-05-13T14:00:16.681Z,40.54
2023-05-13T14:02:44.098Z,39.18
2023-05-13T14:05:11.795Z,40.81
2023-05-13T14:07:38.442Z,41.17
2023-05-13T14:10:06.088Z,37.47
2023-05-13T14:12:32.599Z,39.24
2023-05-13T14:14:59.290Z,38.25
2023-05-13T14:17:25.864Z,42.55
2023-05-13T14:19:54.980Z,36.97
2023-05-13T14:22:24.557Z,38.63
2023-05-13T14:24:52.247Z,37.33
2023-05-13T14:27:19.156Z,35.01
2023-05-13T14:29:47.499Z,37.03
2023-05-13T14:32:14.247Z,35.09
2023-05-13T14:34:40.634Z,38.29
2023-05-13T14:37:07.392Z,38.12
2023-05-13T14:39:33.799Z,36.12
2023-05-13T14:42:00.711Z,37.84
2023-05-13T14:44:27.103Z,37.31
2023-05-13T14:46:53.591Z,37.00
2023-05-13T14:49:20.001Z,36.01
2023-05-13T14:51:46.362Z,39.35
2023-05-13T14:54:12.829Z,34.72
2023-05-13T14:56:39.323Z,36.21
2023-05-13T14:59:05.718Z,36.06
2023-05-13T15:01:32.396Z,34.91
2023-05-13T15:03:59.680Z,37.99
2023-05-13T15:06:27.005Z,36.74
2023-05-13T15:08:53.942Z,36.02
2023-05-13T15:11:20.934Z,36.82
2023-05-13T15:13:47.338Z,36.06
2023-05-13T15:16:13.766Z,34.37
2023-05-13T15:18:40.198Z,35.52
2023-05-13T15:21:06.759Z,34.07
2023-05-13T15:23:33.446Z,34.50
2023-05-13T15:25:59.829Z,35.09
2023-05-13T15:28:26.392Z,34.89
2023-05-13T15:30:52.896Z,36.64
2023-05-13T15:33:19.321Z,36.44
2023-05-13T15:35:46.058Z,37.20
2023-05-13T15:38:12.528Z,34.18
2023-05-13T15:40:39.095Z,35.20
2023-05-13T15:43:05.476Z,34.22
2023-05-13T15:45:31.945Z,33.83
2023-05-13T15:47:58.390Z,34.55
2023-05-13T15:50:25.994Z,35.75
2023-05-13T15:52:54.327Z,35.70
2023-05-13T15:55:21.106Z,34.65
2023-05-13T15:57:48.885Z,36.61
2023-05-13T16:00:17.382Z,42.13
2023-05-13T16:02:44.276Z,46.14
2023-05-13T16:05:15.752Z,45.88
2023-05-13T16:07:44.225Z,42.84
2023-05-13T16:10:11.278Z,35.56
2023-05-13T16:12:37.811Z,44.99
2023-05-13T16:15:04.881Z,48.62
2023-05-13T16:17:31.351Z,48.24
2023-05-13T16:19:57.769Z,48.22
2023-05-13T16:22:28.987Z,48.86
2023-05-13T16:25:13.816Z,48.75
2023-05-13T16:27:42.866Z,49.04
2023-05-13T16:30:10.427Z,49.94
2023-05-13T16:32:37.155Z,49.25
2023-05-13T16:35:03.881Z,49.49
2023-05-13T16:37:31.254Z,49.71
2023-05-13T16:39:57.738Z,50.93
2023-05-13T16:42:24.181Z,51.03
2023-05-13T16:44:50.613Z,50.16
2023-05-13T16:47:17.171Z,49.26
2023-05-13T16:49:43.711Z,49.83
2023-05-13T16:52:10.104Z,50.26
2023-05-13T16:54:36.644Z,50.52
2023-05-13T16:57:03.187Z,51.01
2023-05-13T16:59:29.642Z,50.92
2023-05-13T17:01:56.112Z,51.72
2023-05-13T17:04:22.729Z,51.56
2023-05-13T17:06:49.277Z,51.47
2023-05-13T17:09:16.169Z,51.77
2023-05-13T17:11:43.439Z,52.32
2023-05-13T17:14:09.917Z,52.51
2023-05-13T17:16:36.422Z,52.74
2023-05-13T17:19:02.944Z,54.36
2023-05-13T17:21:29.428Z,53.40
2023-05-13T17:23:55.822Z,54.02
2023-05-13T17:26:22.338Z,54.39
2023-05-13T17:28:49.671Z,55.09
2023-05-13T17:31:16.263Z,56.19
2023-05-13T17:33:42.691Z,55.87
2023-05-13T17:36:09.234Z,57.18
2023-05-13T17:38:35.901Z,58.12
2023-05-13T17:41:02.439Z,58.77
2023-05-13T17:43:28.836Z,60.55
2023-05-13T17:45:55.388Z,60.21
2023-05-13T17:48:22.251Z,60.75
2023-05-13T17:50:48.734Z,60.09
2023-05-13T17:53:15.256Z,60.46
2023-05-13T17:55:41.608Z,60.36
2023-05-13T17:58:08.003Z,60.45
2023-05-13T18:00:34.441Z,60.63
2023-05-13T18:03:00.821Z,61.26
2023-05-13T18:05:27.589Z,61.05
2023-05-13T18:07:53.994Z,61.68
2023-05-13T18:10:20.663Z,61.80
2023-05-13T18:12:47.384Z,62.03
2023-05-13T18:15:13.866Z,61.41
2023-05-13T18:17:40.290Z,61.72
2023-05-13T18:20:07.279Z,61.56
2023-05-13T18:22:34.780Z,61.63
2023-05-13T18:25:01.200Z,61.91
2023-05-13T18:27:27.705Z,62.37
2023-05-13T18:29:54.170Z,62.15
2023-05-13T18:32:20.574Z,63.05
2023-05-13T18:34:47.063Z,63.77
2023-05-13T18:37:15.060Z,63.84
2023-05-13T18:39:43.417Z,63.76
2023-05-13T18:42:09.830Z,64.05
2023-05-13T18:44:36.405Z,64.73
2023-05-13T18:47:04.721Z,65.08
2023-05-13T18:49:32.296Z,65.04
2023-05-13T18:51:59.142Z,66.00
2023-05-13T18:54:27.765Z,66.05
2023-05-13T18:56:54.297Z,66.73
2023-05-13T18:59:20.678Z,66.81
2023-05-13T19:01:47.341Z,67.01
2023-05-13T19:04:15.197Z,66.67
2023-05-13T19:06:41.801Z,66.80
2023-05-13T19:09:08.224Z,67.34
2023-05-13T19:11:34.757Z,67.60
2023-05-13T19:14:01.231Z,67.39
2023-05-13T19:16:27.816Z,67.45
2023-05-13T19:18:54.346Z,67.34
2023-05-13T19:21:23.204Z,67.77
2023-05-13T19:23:50.060Z,68.08
2023-05-13T19:26:16.493Z,68.10
2023-05-13T19:28:46.176Z,68.55
2023-05-13T19:31:12.670Z,68.93
2023-05-13T19:33:39.195Z,69.10
2023-05-13T19:36:06.631Z,69.26
2023-05-13T19:38:33.915Z,69.31
2023-05-13T19:41:00.440Z,69.09
2023-05-13T19:43:26.968Z,69.85
2023-05-13T19:45:55.468Z,69.53
2023-05-13T19:48:22.045Z,70.15
2023-05-13T19:50:48.545Z,70.33
2023-05-13T19:53:15.202Z,69.83
2023-05-13T19:55:41.747Z,70.28
2023-05-13T19:58:08.479Z,70.07
2023-05-13T20:00:34.916Z,70.43
2023-05-13T20:03:01.362Z,71.02
2023-05-13T20:05:27.837Z,71.15
2023-05-13T20:07:54.249Z,71.20
2023-05-13T20:10:21.003Z,71.37
2023-05-13T20:12:47.594Z,71.85
2023-05-13T20:15:14.723Z,72.22
2023-05-13T20:17:42.256Z,72.73
2023-05-13T20:20:09.017Z,73.20
2023-05-13T20:22:35.386Z,73.21
2023-05-13T20:25:01.828Z,73.85
2023-05-13T20:27:28.306Z,74.03
2023-05-13T20:29:55.818Z,74.26
2023-05-13T20:32:24.567Z,74.51
2023-05-13T20:34:54.783Z,74.64
2023-05-13T20:37:23.998Z,75.17
2023-05-13T20:39:51.523Z,75.16
2023-05-13T20:42:18.065Z,75.69
2023-05-13T20:44:46.173Z,75.87
2023-05-13T20:47:13.269Z,75.92
2023-05-13T20:49:39.820Z,76.26
2023-05-13T20:52:08.504Z,76.65
2023-05-13T20:54:36.360Z,76.82
2023-05-13T20:57:03.535Z,76.93
2023-05-13T20:59:30.654Z,77.23
2023-05-13T21:01:57.356Z,77.43
2023-05-13T21:04:25.439Z,77.44
2023-05-13T21:06:52.517Z,77.75
2023-05-13T21:09:18.969Z,78.32
2023-05-13T21:11:45.869Z,78.54
2023-05-13T21:14:12.279Z,78.39
2023-05-13T21:16:38.727Z,78.70
2023-05-13T21:19:05.171Z,79.17
2023-05-13T21:21:32.102Z,79.02
2023-05-13T21:23:58.523Z,79.41
2023-05-13T21:26:25.168Z,79.46
2023-05-13T21:28:51.619Z,79.49
2023-05-13T21:31:18.008Z,79.74
2023-05-13T21:33:44.468Z,80.25
2023-05-13T21:36:10.860Z,80.13
2023-05-13T21:38:37.238Z,80.41
2023-05-13T21:41:03.765Z,80.66
2023-05-13T21:43:30.233Z,80.79
2023-05-13T21:45:56.630Z,80.82
2023-05-13T21:48:23.130Z,81.08
2023-05-13T21:50:49.609Z,81.14
2023-05-13T21:53:16.165Z,81.31
2023-05-13T21:55:43.949Z,81.50
2023-05-13T21:58:10.429Z,81.71
2023-05-13T22:00:36.876Z,81.64
2023-05-13T22:03:03.551Z,81.47
2023-05-13T22:05:30.493Z,81.52
2023-05-13T22:07:57.107Z,81.62
2023-05-13T22:10:23.720Z,81.79
2023-05-13T22:12:50.352Z,81.74
2023-05-13T22:15:16.872Z,81.91
2023-05-13T22:17:43.463Z,82.07
2023-05-13T22:20:10.430Z,82.29
2023-05-13T22:22:36.863Z,82.24
2023-05-13T22:25:03.704Z,82.45
2023-05-13T22:27:30.124Z,82.75
2023-05-13T22:29:56.789Z,82.66
2023-05-13T22:32:23.436Z,83.03
2023-05-13T22:34:49.826Z,83.22
2023-05-13T22:37:16.531Z,83.55
2023-05-13T22:39:43.994Z,83.61
2023-05-13T22:42:10.375Z,83.87
2023-05-13T22:44:36.764Z,83.83
2023-05-13T22:47:03.404Z,84.22
2023-05-13T22:49:29.819Z,84.31
2023-05-13T22:51:56.501Z,84.23
2023-05-13T22:54:22.957Z,84.56
2023-05-13T22:56:49.334Z,84.70
2023-05-13T22:59:15.789Z,84.70
2023-05-13T23:01:42.254Z,85.03
2023-05-13T23:04:08.746Z,85.09
2023-05-13T23:06:35.399Z,85.72
2023-05-13T23:09:02.158Z,85.97
2023-05-13T23:11:28.569Z,86.07
2023-05-13T23:13:54.983Z,86.16
2023-05-13T23:16:21.400Z,86.38
2023-05-13T23:18:47.938Z,86.51
2023-05-13T23:21:14.421Z,86.50
2023-05-13T23:23:40.815Z,86.84
2023-05-13T23:26:07.217Z,86.85
2023-05-13T23:28:33.641Z,87.02
2023-05-13T23:31:00.056Z,87.54
2023-05-13T23:33:26.611Z,87.82
2023-05-13T23:35:54.249Z,88.22
2023-05-13T23:38:20.856Z,88.38
2023-05-13T23:40:47.332Z,88.91
2023-05-13T23:43:13.845Z,88.92
2023-05-13T23:45:40.378Z,89.18
2023-05-13T23:48:06.962Z,89.62
2023-05-13T23:50:33.433Z,89.68
2023-05-13T23:52:59.816Z,89.67
2023-05-13T23:55:26.202Z,89.89
2023-05-13T23:57:52.567Z,90.17
